sensor_id;sensor_type;location;lat;lon;timestamp;temperature;humidity
25300;DHT22;13241;51.208;4.432;2022-08-21T00:00:16;18.60;99.90
25300;DHT22;13241;51.208;4.432;2022-08-21T00:02:50;18.50;99.90
25300;DHT22;13241;51.208;4.432;2022-08-21T00:05:17;18.50;99.90
25300;DHT22;13241;51.208;4.432;2022-08-21T00:07:44;18.40;99.90
25300;DHT22;13241;51.208;4.432;2022-08-21T00:10:11;18.40;99.90
25300;DHT22;13241;51.208;4.432;2022-08-21T00:12:39;18.40;99.90
25300;DHT22;13241;51.208;4.432;2022-08-21T00:15:08;18.30;99.90
25300;DHT22;13241;51.208;4.432;2022-08-21T00:17:37;18.30;99.90
25300;DHT22;13241;51.208;4.432;2022-08-21T00:20:07;18.20;99.90
25300;DHT22;13241;51.208;4.432;2022-08-21T00:22:35;18.30;99.90
25300;DHT22;13241;51.208;4.432;2022-08-21T00:25:04;18.30;99.90
25300;DHT22;13241;51.208;4.432;2022-08-21T00:27:32;18.20;99.90
25300;DHT22;13241;51.208;4.432;2022-08-21T00:30:00;18.10;99.90
25300;DHT22;13241;51.208;4.432;2022-08-21T00:32:27;18.10;99.90
25300;DHT22;13241;51.208;4.432;2022-08-21T00:34:57;18.20;99.90
25300;DHT22;13241;51.208;4.432;2022-08-21T00:37:24;18.30;99.90
25300;DHT22;13241;51.208;4.432;2022-08-21T00:39:54;18.10;99.90
25300;DHT22;13241;51.208;4.432;2022-08-21T00:42:22;18.10;99.90
25300;DHT22;13241;51.208;4.432;2022-08-21T00:44:49;18.00;99.90
25300;DHT22;13241;51.208;4.432;2022-08-21T00:47:18;18.00;99.90
25300;DHT22;13241;51.208;4.432;2022-08-21T00:49:45;18.10;99.90
25300;DHT22;13241;51.208;4.432;2022-08-21T00:52:17;17.90;99.90
25300;DHT22;13241;51.208;4.432;2022-08-21T00:54:46;17.80;99.90
25300;DHT22;13241;51.208;4.432;2022-08-21T00:57:24;17.80;99.90
25300;DHT22;13241;51.208;4.432;2022-08-21T00:59:56;17.80;99.90
25300;DHT22;13241;51.208;4.432;2022-08-21T01:02:25;17.90;99.90
25300;DHT22;13241;51.208;4.432;2022-08-21T01:04:53;17.60;99.90
25300;DHT22;13241;51.208;4.432;2022-08-21T01:07:20;17.90;99.90
25300;DHT22;13241;51.208;4.432;2022-08-21T01:09:48;17.70;99.90
25300;DHT22;13241;51.208;4.432;2022-08-21T01:12:15;17.60;99.90
25300;DHT22;13241;51.208;4.432;2022-08-21T01:14:42;17.60;99.90
25300;DHT22;13241;51.208;4.432;2022-08-21T01:17:12;17.70;99.90
25300;DHT22;13241;51.208;4.432;2022-08-21T01:19:40;17.60;99.90
25300;DHT22;13241;51.208;4.432;2022-08-21T01:22:07;17.50;99.90
25300;DHT22;13241;51.208;4.432;2022-08-21T01:24:35;17.50;99.90
25300;DHT22;13241;51.208;4.432;2022-08-21T01:27:02;17.50;99.90
25300;DHT22;13241;51.208;4.432;2022-08-21T01:29:42;17.50;99.90
25300;DHT22;13241;51.208;4.432;2022-08-21T01:32:16;17.50;99.90
25300;DHT22;13241;51.208;4.432;2022-08-21T01:34:46;17.40;99.90
25300;DHT22;13241;51.208;4.432;2022-08-21T01:37:14;17.40;99.90
25300;DHT22;13241;51.208;4.432;2022-08-21T01:39:43;17.40;99.90
25300;DHT22;13241;51.208;4.432;2022-08-21T01:42:11;17.40;99.90
25300;DHT22;13241;51.208;4.432;2022-08-21T01:44:39;17.40;99.90
25300;DHT22;13241;51.208;4.432;2022-08-21T01:47:08;17.40;99.90
25300;DHT22;13241;51.208;4.432;2022-08-21T01:49:36;17.40;99.90
25300;DHT22;13241;51.208;4.432;2022-08-21T01:52:04;17.30;99.90
25300;DHT22;13241;51.208;4.432;2022-08-21T01:54:35;17.40;99.90
25300;DHT22;13241;51.208;4.432;2022-08-21T01:57:03;17.30;99.90
25300;DHT22;13241;51.208;4.432;2022-08-21T01:59:30;17.30;99.90
25300;DHT22;13241;51.208;4.432;2022-08-21T02:01:57;17.20;99.90
25300;DHT22;13241;51.208;4.432;2022-08-21T02:04:24;17.20;99.90
25300;DHT22;13241;51.208;4.432;2022-08-21T02:06:51;17.10;99.90
25300;DHT22;13241;51.208;4.432;2022-08-21T02:09:19;17.00;99.90
25300;DHT22;13241;51.208;4.432;2022-08-21T02:11:46;17.00;99.90
25300;DHT22;13241;51.208;4.432;2022-08-21T02:14:14;17.00;99.90
25300;DHT22;13241;51.208;4.432;2022-08-21T02:16:58;17.00;99.90
25300;DHT22;13241;51.208;4.432;2022-08-21T02:19:34;17.10;99.90
25300;DHT22;13241;51.208;4.432;2022-08-21T02:22:08;17.00;99.90
25300;DHT22;13241;51.208;4.432;2022-08-21T02:24:37;16.90;99.90
25300;DHT22;13241;51.208;4.432;2022-08-21T02:27:22;17.10;99.90
25300;DHT22;13241;51.208;4.432;2022-08-21T02:29:55;16.90;99.90
25300;DHT22;13241;51.208;4.432;2022-08-21T02:32:22;16.90;99.90
25300;DHT22;13241;51.208;4.432;2022-08-21T02:34:49;16.80;99.90
25300;DHT22;13241;51.208;4.432;2022-08-21T02:37:16;16.80;99.90
25300;DHT22;13241;51.208;4.432;2022-08-21T02:39:43;16.80;99.90
25300;DHT22;13241;51.208;4.432;2022-08-21T02:42:10;16.80;99.90
25300;DHT22;13241;51.208;4.432;2022-08-21T02:44:37;16.80;99.90
25300;DHT22;13241;51.208;4.432;2022-08-21T02:47:04;16.90;99.90
25300;DHT22;13241;51.208;4.432;2022-08-21T02:49:31;16.80;99.90
25300;DHT22;13241;51.208;4.432;2022-08-21T02:51:58;16.80;99.90
25300;DHT22;13241;51.208;4.432;2022-08-21T02:54:25;16.70;99.90
25300;DHT22;13241;51.208;4.432;2022-08-21T02:56:52;16.70;99.90
25300;DHT22;13241;51.208;4.432;2022-08-21T02:59:19;16.70;99.90
25300;DHT22;13241;51.208;4.432;2022-08-21T03:01:46;16.70;99.90
25300;DHT22;13241;51.208;4.432;2022-08-21T03:04:13;16.70;99.90
25300;DHT22;13241;51.208;4.432;2022-08-21T03:06:40;16.70;99.90
25300;DHT22;13241;51.208;4.432;2022-08-21T03:09:13;16.50;99.90
25300;DHT22;13241;51.208;4.432;2022-08-21T03:11:41;16.60;99.90
25300;DHT22;13241;51.208;4.432;2022-08-21T03:14:18;16.60;99.90
25300;DHT22;13241;51.208;4.432;2022-08-21T03:16:44;16.70;99.90
25300;DHT22;13241;51.208;4.432;2022-08-21T03:19:12;16.70;99.90
25300;DHT22;13241;51.208;4.432;2022-08-21T03:21:39;16.70;99.90
25300;DHT22;13241;51.208;4.432;2022-08-21T03:24:06;16.70;99.90
25300;DHT22;13241;51.208;4.432;2022-08-21T03:26:33;16.60;99.90
25300;DHT22;13241;51.208;4.432;2022-08-21T03:29:02;16.80;99.90
25300;DHT22;13241;51.208;4.432;2022-08-21T03:31:29;16.60;99.90
25300;DHT22;13241;51.208;4.432;2022-08-21T03:33:58;16.50;99.90
25300;DHT22;13241;51.208;4.432;2022-08-21T03:36:25;16.50;99.90
25300;DHT22;13241;51.208;4.432;2022-08-21T03:38:53;16.60;99.90
25300;DHT22;13241;51.208;4.432;2022-08-21T03:41:20;16.40;99.90
25300;DHT22;13241;51.208;4.432;2022-08-21T03:43:46;16.40;99.90
25300;DHT22;13241;51.208;4.432;2022-08-21T03:46:13;16.40;99.90
25300;DHT22;13241;51.208;4.432;2022-08-21T03:48:40;16.40;99.90
25300;DHT22;13241;51.208;4.432;2022-08-21T03:51:08;16.60;99.90
25300;DHT22;13241;51.208;4.432;2022-08-21T03:53:35;16.40;99.90
25300;DHT22;13241;51.208;4.432;2022-08-21T03:56:04;16.40;99.90
25300;DHT22;13241;51.208;4.432;2022-08-21T03:58:31;16.40;99.90
25300;DHT22;13241;51.208;4.432;2022-08-21T04:01:00;16.30;99.90
25300;DHT22;13241;51.208;4.432;2022-08-21T04:03:28;16.30;99.90
25300;DHT22;13241;51.208;4.432;2022-08-21T04:05:55;16.30;99.90
25300;DHT22;13241;51.208;4.432;2022-08-21T04:08:22;16.50;99.90
25300;DHT22;13241;51.208;4.432;2022-08-21T04:10:51;16.30;99.90
25300;DHT22;13241;51.208;4.432;2022-08-21T04:13:19;16.20;99.90
25300;DHT22;13241;51.208;4.432;2022-08-21T04:15:47;16.20;99.90
25300;DHT22;13241;51.208;4.432;2022-08-21T04:18:14;16.30;99.90
25300;DHT22;13241;51.208;4.432;2022-08-21T04:20:42;16.20;99.90
25300;DHT22;13241;51.208;4.432;2022-08-21T04:23:16;16.20;99.90
25300;DHT22;13241;51.208;4.432;2022-08-21T04:25:51;16.20;99.90
25300;DHT22;13241;51.208;4.432;2022-08-21T04:28:20;16.20;99.90
25300;DHT22;13241;51.208;4.432;2022-08-21T04:30:50;16.10;99.90
25300;DHT22;13241;51.208;4.432;2022-08-21T04:33:19;16.10;99.90
25300;DHT22;13241;51.208;4.432;2022-08-21T04:35:46;16.20;99.90
25300;DHT22;13241;51.208;4.432;2022-08-21T04:38:13;16.20;99.90
25300;DHT22;13241;51.208;4.432;2022-08-21T04:40:41;16.20;99.90
25300;DHT22;13241;51.208;4.432;2022-08-21T04:43:10;16.20;99.90
25300;DHT22;13241;51.208;4.432;2022-08-21T04:45:40;16.20;99.90
25300;DHT22;13241;51.208;4.432;2022-08-21T04:48:09;16.20;99.90
25300;DHT22;13241;51.208;4.432;2022-08-21T04:53:26;16.20;99.90
25300;DHT22;13241;51.208;4.432;2022-08-21T04:56:00;16.20;99.90
25300;DHT22;13241;51.208;4.432;2022-08-21T04:58:28;16.20;99.90
25300;DHT22;13241;51.208;4.432;2022-08-21T05:00:57;16.10;99.90
25300;DHT22;13241;51.208;4.432;2022-08-21T05:03:25;16.10;99.90
25300;DHT22;13241;51.208;4.432;2022-08-21T05:05:52;16.10;99.90
25300;DHT22;13241;51.208;4.432;2022-08-21T05:08:21;16.20;99.90
25300;DHT22;13241;51.208;4.432;2022-08-21T05:10:50;16.40;99.90
25300;DHT22;13241;51.208;4.432;2022-08-21T05:13:17;16.20;99.90
25300;DHT22;13241;51.208;4.432;2022-08-21T05:15:44;16.30;99.90
25300;DHT22;13241;51.208;4.432;2022-08-21T05:18:11;16.20;99.90
25300;DHT22;13241;51.208;4.432;2022-08-21T05:20:39;16.20;99.90
25300;DHT22;13241;51.208;4.432;2022-08-21T05:23:11;16.20;99.90
25300;DHT22;13241;51.208;4.432;2022-08-21T05:25:38;16.20;99.90
25300;DHT22;13241;51.208;4.432;2022-08-21T05:28:05;16.20;99.90
25300;DHT22;13241;51.208;4.432;2022-08-21T05:30:34;16.30;99.90
25300;DHT22;13241;51.208;4.432;2022-08-21T05:33:03;16.30;99.90
25300;DHT22;13241;51.208;4.432;2022-08-21T05:35:31;16.40;99.90
25300;DHT22;13241;51.208;4.432;2022-08-21T05:38:00;16.30;99.90
25300;DHT22;13241;51.208;4.432;2022-08-21T05:40:27;16.40;99.90
25300;DHT22;13241;51.208;4.432;2022-08-21T05:42:55;16.60;99.90
25300;DHT22;13241;51.208;4.432;2022-08-21T05:45:24;16.60;99.90
25300;DHT22;13241;51.208;4.432;2022-08-21T05:48:29;16.70;99.90
25300;DHT22;13241;51.208;4.432;2022-08-21T05:50:56;16.80;99.90
25300;DHT22;13241;51.208;4.432;2022-08-21T05:53:24;16.90;99.90
25300;DHT22;13241;51.208;4.432;2022-08-21T05:55:51;17.00;99.90
25300;DHT22;13241;51.208;4.432;2022-08-21T05:58:20;17.20;99.90
25300;DHT22;13241;51.208;4.432;2022-08-21T06:00:49;17.10;99.90
25300;DHT22;13241;51.208;4.432;2022-08-21T06:03:19;17.20;99.90
25300;DHT22;13241;51.208;4.432;2022-08-21T06:05:47;17.30;99.90
25300;DHT22;13241;51.208;4.432;2022-08-21T06:08:15;17.50;99.90
25300;DHT22;13241;51.208;4.432;2022-08-21T06:10:43;17.50;99.90
25300;DHT22;13241;51.208;4.432;2022-08-21T06:13:10;17.60;99.90
25300;DHT22;13241;51.208;4.432;2022-08-21T06:15:38;17.70;99.90
25300;DHT22;13241;51.208;4.432;2022-08-21T06:18:05;17.80;99.90
25300;DHT22;13241;51.208;4.432;2022-08-21T06:20:33;17.80;99.90
25300;DHT22;13241;51.208;4.432;2022-08-21T06:23:01;18.00;99.90
25300;DHT22;13241;51.208;4.432;2022-08-21T06:25:28;18.00;99.90
25300;DHT22;13241;51.208;4.432;2022-08-21T06:28:08;18.20;99.90
25300;DHT22;13241;51.208;4.432;2022-08-21T06:30:37;18.20;99.90
25300;DHT22;13241;51.208;4.432;2022-08-21T06:33:05;18.40;99.90
25300;DHT22;13241;51.208;4.432;2022-08-21T06:35:33;18.40;99.90
25300;DHT22;13241;51.208;4.432;2022-08-21T06:38:01;18.50;99.90
25300;DHT22;13241;51.208;4.432;2022-08-21T06:40:29;18.60;99.90
25300;DHT22;13241;51.208;4.432;2022-08-21T06:43:07;18.50;99.90
25300;DHT22;13241;51.208;4.432;2022-08-21T06:45:35;18.80;99.90
25300;DHT22;13241;51.208;4.432;2022-08-21T06:48:02;18.90;99.90
25300;DHT22;13241;51.208;4.432;2022-08-21T06:50:30;18.80;99.90
25300;DHT22;13241;51.208;4.432;2022-08-21T06:53:03;19.10;99.90
25300;DHT22;13241;51.208;4.432;2022-08-21T06:55:31;19.20;99.90
25300;DHT22;13241;51.208;4.432;2022-08-21T06:57:58;19.30;99.90
25300;DHT22;13241;51.208;4.432;2022-08-21T07:00:26;19.30;99.90
25300;DHT22;13241;51.208;4.432;2022-08-21T07:02:52;19.30;99.90
25300;DHT22;13241;51.208;4.432;2022-08-21T07:05:20;19.40;99.90
25300;DHT22;13241;51.208;4.432;2022-08-21T07:07:47;19.50;99.90
25300;DHT22;13241;51.208;4.432;2022-08-21T07:10:14;19.70;99.90
25300;DHT22;13241;51.208;4.432;2022-08-21T07:12:49;19.90;99.90
25300;DHT22;13241;51.208;4.432;2022-08-21T07:15:26;20.10;99.90
25300;DHT22;13241;51.208;4.432;2022-08-21T07:17:53;20.20;99.90
25300;DHT22;13241;51.208;4.432;2022-08-21T07:20:20;20.30;99.90
25300;DHT22;13241;51.208;4.432;2022-08-21T07:22:47;20.40;99.90
25300;DHT22;13241;51.208;4.432;2022-08-21T07:25:14;20.60;99.90
25300;DHT22;13241;51.208;4.432;2022-08-21T07:27:41;20.70;99.90
25300;DHT22;13241;51.208;4.432;2022-08-21T07:30:08;20.80;99.90
25300;DHT22;13241;51.208;4.432;2022-08-21T07:32:35;20.90;99.90
25300;DHT22;13241;51.208;4.432;2022-08-21T07:35:03;21.10;99.90
25300;DHT22;13241;51.208;4.432;2022-08-21T07:37:31;21.10;99.90
25300;DHT22;13241;51.208;4.432;2022-08-21T07:39:58;21.20;99.90
25300;DHT22;13241;51.208;4.432;2022-08-21T07:42:25;21.40;99.90
25300;DHT22;13241;51.208;4.432;2022-08-21T07:44:54;21.40;99.90
25300;DHT22;13241;51.208;4.432;2022-08-21T07:47:22;21.60;99.90
25300;DHT22;13241;51.208;4.432;2022-08-21T07:50:08;21.80;99.90
25300;DHT22;13241;51.208;4.432;2022-08-21T07:52:34;21.90;99.90
25300;DHT22;13241;51.208;4.432;2022-08-21T07:55:02;22.30;99.90
25300;DHT22;13241;51.208;4.432;2022-08-21T07:57:32;22.50;99.90
25300;DHT22;13241;51.208;4.432;2022-08-21T07:59:59;22.40;99.90
25300;DHT22;13241;51.208;4.432;2022-08-21T08:02:28;22.60;99.90
25300;DHT22;13241;51.208;4.432;2022-08-21T08:05:04;22.50;99.90
25300;DHT22;13241;51.208;4.432;2022-08-21T08:07:32;22.70;99.90
25300;DHT22;13241;51.208;4.432;2022-08-21T08:09:59;22.70;99.90
25300;DHT22;13241;51.208;4.432;2022-08-21T08:12:27;22.70;99.90
25300;DHT22;13241;51.208;4.432;2022-08-21T08:14:59;22.60;99.90
25300;DHT22;13241;51.208;4.432;2022-08-21T08:17:27;22.60;99.90
25300;DHT22;13241;51.208;4.432;2022-08-21T08:19:54;22.60;99.90
25300;DHT22;13241;51.208;4.432;2022-08-21T08:22:23;22.50;99.90
25300;DHT22;13241;51.208;4.432;2022-08-21T08:24:51;22.40;99.90
25300;DHT22;13241;51.208;4.432;2022-08-21T08:27:19;22.40;99.90
25300;DHT22;13241;51.208;4.432;2022-08-21T08:29:49;22.40;99.90
25300;DHT22;13241;51.208;4.432;2022-08-21T08:32:17;22.50;99.90
25300;DHT22;13241;51.208;4.432;2022-08-21T08:34:45;22.60;99.90
25300;DHT22;13241;51.208;4.432;2022-08-21T08:37:13;22.80;99.90
25300;DHT22;13241;51.208;4.432;2022-08-21T08:39:45;23.00;99.90
25300;DHT22;13241;51.208;4.432;2022-08-21T08:42:29;23.10;99.90
25300;DHT22;13241;51.208;4.432;2022-08-21T08:47:37;23.30;99.90
25300;DHT22;13241;51.208;4.432;2022-08-21T08:50:09;23.40;99.90
25300;DHT22;13241;51.208;4.432;2022-08-21T08:52:45;23.60;99.90
25300;DHT22;13241;51.208;4.432;2022-08-21T08:55:24;23.80;99.90
25300;DHT22;13241;51.208;4.432;2022-08-21T08:57:54;24.10;99.90
25300;DHT22;13241;51.208;4.432;2022-08-21T09:00:28;24.20;99.90
25300;DHT22;13241;51.208;4.432;2022-08-21T09:02:57;24.40;99.90
25300;DHT22;13241;51.208;4.432;2022-08-21T09:05:48;24.60;99.90
25300;DHT22;13241;51.208;4.432;2022-08-21T09:11:04;24.80;99.90
25300;DHT22;13241;51.208;4.432;2022-08-21T09:13:50;24.60;99.90
25300;DHT22;13241;51.208;4.432;2022-08-21T09:19:48;24.60;99.90
25300;DHT22;13241;51.208;4.432;2022-08-21T09:22:23;24.80;99.90
25300;DHT22;13241;51.208;4.432;2022-08-21T09:24:59;24.50;99.90
25300;DHT22;13241;51.208;4.432;2022-08-21T09:27:29;24.60;99.90
25300;DHT22;13241;51.208;4.432;2022-08-21T09:29:57;24.90;99.90
25300;DHT22;13241;51.208;4.432;2022-08-21T09:32:28;25.20;99.90
25300;DHT22;13241;51.208;4.432;2022-08-21T09:35:11;25.50;99.90
25300;DHT22;13241;51.208;4.432;2022-08-21T09:45:42;25.30;99.90
25300;DHT22;13241;51.208;4.432;2022-08-21T09:50:37;24.80;99.90
25300;DHT22;13241;51.208;4.432;2022-08-21T09:53:13;24.60;99.90
25300;DHT22;13241;51.208;4.432;2022-08-21T09:56:03;24.80;99.90
25300;DHT22;13241;51.208;4.432;2022-08-21T09:58:51;24.80;99.90
25300;DHT22;13241;51.208;4.432;2022-08-21T10:01:23;24.80;99.90
25300;DHT22;13241;51.208;4.432;2022-08-21T10:04:10;24.70;99.90
25300;DHT22;13241;51.208;4.432;2022-08-21T10:06:37;24.40;99.90
25300;DHT22;13241;51.208;4.432;2022-08-21T10:09:10;24.30;99.90
25300;DHT22;13241;51.208;4.432;2022-08-21T10:11:52;24.20;99.90
25300;DHT22;13241;51.208;4.432;2022-08-21T10:14:37;23.90;99.90
25300;DHT22;13241;51.208;4.432;2022-08-21T10:17:20;23.80;99.90
25300;DHT22;13241;51.208;4.432;2022-08-21T10:20:14;24.20;99.90
25300;DHT22;13241;51.208;4.432;2022-08-21T10:26:02;25.20;99.90
25300;DHT22;13241;51.208;4.432;2022-08-21T10:40:21;25.70;99.90
25300;DHT22;13241;51.208;4.432;2022-08-21T10:48:33;25.50;99.90
25300;DHT22;13241;51.208;4.432;2022-08-21T10:53:50;26.10;99.90
25300;DHT22;13241;51.208;4.432;2022-08-21T10:56:28;26.40;99.90
25300;DHT22;13241;51.208;4.432;2022-08-21T11:01:55;26.00;99.90
25300;DHT22;13241;51.208;4.432;2022-08-21T11:04:59;26.00;99.90
25300;DHT22;13241;51.208;4.432;2022-08-21T11:07:44;26.20;99.90
25300;DHT22;13241;51.208;4.432;2022-08-21T11:10:33;26.20;99.90
25300;DHT22;13241;51.208;4.432;2022-08-21T11:13:59;26.20;99.90
25300;DHT22;13241;51.208;4.432;2022-08-21T11:18:37;26.20;99.90
25300;DHT22;13241;51.208;4.432;2022-08-21T11:23:54;26.20;99.90
25300;DHT22;13241;51.208;4.432;2022-08-21T11:37:59;27.20;99.90
25300;DHT22;13241;51.208;4.432;2022-08-21T11:41:03;27.00;99.90
25300;DHT22;13241;51.208;4.432;2022-08-21T11:46:19;26.70;99.90
25300;DHT22;13241;51.208;4.432;2022-08-21T11:51:56;26.70;99.90
25300;DHT22;13241;51.208;4.432;2022-08-21T11:54:49;26.90;99.90
25300;DHT22;13241;51.208;4.432;2022-08-21T11:57:23;27.20;99.90
25300;DHT22;13241;51.208;4.432;2022-08-21T12:00:00;27.20;99.90
25300;DHT22;13241;51.208;4.432;2022-08-21T12:02:36;27.10;99.90
25300;DHT22;13241;51.208;4.432;2022-08-21T12:05:07;27.40;99.90
25300;DHT22;13241;51.208;4.432;2022-08-21T12:07:41;27.30;99.90
25300;DHT22;13241;51.208;4.432;2022-08-21T12:10:15;26.90;99.90
25300;DHT22;13241;51.208;4.432;2022-08-21T12:12:44;26.40;99.90
25300;DHT22;13241;51.208;4.432;2022-08-21T12:23:24;26.10;99.90
25300;DHT22;13241;51.208;4.432;2022-08-21T12:26:25;26.10;99.90
25300;DHT22;13241;51.208;4.432;2022-08-21T12:29:14;26.10;99.90
25300;DHT22;13241;51.208;4.432;2022-08-21T12:31:57;26.00;99.90
25300;DHT22;13241;51.208;4.432;2022-08-21T12:34:35;25.90;99.90
25300;DHT22;13241;51.208;4.432;2022-08-21T12:37:20;25.80;99.90
25300;DHT22;13241;51.208;4.432;2022-08-21T12:39:52;25.70;99.90
25300;DHT22;13241;51.208;4.432;2022-08-21T12:42:34;25.80;99.90
25300;DHT22;13241;51.208;4.432;2022-08-21T12:45:16;25.90;99.90
25300;DHT22;13241;51.208;4.432;2022-08-21T12:47:54;25.90;99.90
25300;DHT22;13241;51.208;4.432;2022-08-21T12:50:45;25.90;99.90
25300;DHT22;13241;51.208;4.432;2022-08-21T12:53:47;25.80;99.90
25300;DHT22;13241;51.208;4.432;2022-08-21T12:56:18;25.80;99.90
25300;DHT22;13241;51.208;4.432;2022-08-21T12:59:07;25.60;99.90
25300;DHT22;13241;51.208;4.432;2022-08-21T13:01:38;25.50;99.90
25300;DHT22;13241;51.208;4.432;2022-08-21T13:04:18;25.30;99.90
25300;DHT22;13241;51.208;4.432;2022-08-21T13:06:53;25.40;99.90
25300;DHT22;13241;51.208;4.432;2022-08-21T13:09:26;25.60;99.90
25300;DHT22;13241;51.208;4.432;2022-08-21T13:11:53;25.80;99.90
25300;DHT22;13241;51.208;4.432;2022-08-21T13:16:55;25.90;99.90
25300;DHT22;13241;51.208;4.432;2022-08-21T13:19:23;26.00;99.90
25300;DHT22;13241;51.208;4.432;2022-08-21T13:21:51;26.00;99.90
25300;DHT22;13241;51.208;4.432;2022-08-21T13:24:25;26.00;99.90
25300;DHT22;13241;51.208;4.432;2022-08-21T13:27:22;26.00;99.90
25300;DHT22;13241;51.208;4.432;2022-08-21T13:30:05;26.10;99.90
25300;DHT22;13241;51.208;4.432;2022-08-21T13:32:46;26.10;99.90
25300;DHT22;13241;51.208;4.432;2022-08-21T13:35:19;26.10;99.90
25300;DHT22;13241;51.208;4.432;2022-08-21T13:37:48;26.20;99.90
25300;DHT22;13241;51.208;4.432;2022-08-21T13:40:26;26.20;99.90
25300;DHT22;13241;51.208;4.432;2022-08-21T13:42:54;26.30;99.90
25300;DHT22;13241;51.208;4.432;2022-08-21T13:45:30;26.90;99.90
25300;DHT22;13241;51.208;4.432;2022-08-21T13:48:00;28.10;99.90
25300;DHT22;13241;51.208;4.432;2022-08-21T13:50:34;29.60;99.90
25300;DHT22;13241;51.208;4.432;2022-08-21T13:53:07;30.70;99.90
25300;DHT22;13241;51.208;4.432;2022-08-21T13:55:40;31.10;98.70
25300;DHT22;13241;51.208;4.432;2022-08-21T13:58:09;31.00;96.60
25300;DHT22;13241;51.208;4.432;2022-08-21T14:00:52;30.50;96.60
25300;DHT22;13241;51.208;4.432;2022-08-21T14:03:30;29.70;97.90
25300;DHT22;13241;51.208;4.432;2022-08-21T14:05:58;29.00;98.90
25300;DHT22;13241;51.208;4.432;2022-08-21T14:08:34;28.70;99.90
25300;DHT22;13241;51.208;4.432;2022-08-21T14:11:04;28.40;99.90
25300;DHT22;13241;51.208;4.432;2022-08-21T14:16:15;27.90;99.90
25300;DHT22;13241;51.208;4.432;2022-08-21T14:19:07;27.70;99.90
25300;DHT22;13241;51.208;4.432;2022-08-21T14:21:40;27.60;99.90
25300;DHT22;13241;51.208;4.432;2022-08-21T14:24:13;27.30;99.90
25300;DHT22;13241;51.208;4.432;2022-08-21T14:27:01;27.40;99.90
25300;DHT22;13241;51.208;4.432;2022-08-21T14:29:37;28.10;99.90
25300;DHT22;13241;51.208;4.432;2022-08-21T14:32:19;29.10;99.90
25300;DHT22;13241;51.208;4.432;2022-08-21T14:34:52;29.90;98.10
25300;DHT22;13241;51.208;4.432;2022-08-21T14:37:21;29.60;98.00
25300;DHT22;13241;51.208;4.432;2022-08-21T14:39:48;29.30;98.30
25300;DHT22;13241;51.208;4.432;2022-08-21T14:42:17;29.80;97.60
25300;DHT22;13241;51.208;4.432;2022-08-21T14:44:44;30.00;97.60
25300;DHT22;13241;51.208;4.432;2022-08-21T14:47:11;30.60;96.40
25300;DHT22;13241;51.208;4.432;2022-08-21T14:49:38;31.40;95.90
25300;DHT22;13241;51.208;4.432;2022-08-21T14:52:06;31.30;95.40
25300;DHT22;13241;51.208;4.432;2022-08-21T14:54:33;30.80;96.00
25300;DHT22;13241;51.208;4.432;2022-08-21T14:57:06;30.20;96.60
25300;DHT22;13241;51.208;4.432;2022-08-21T14:59:37;29.50;96.30
25300;DHT22;13241;51.208;4.432;2022-08-21T15:02:08;28.90;97.10
25300;DHT22;13241;51.208;4.432;2022-08-21T15:04:36;28.20;98.70
25300;DHT22;13241;51.208;4.432;2022-08-21T15:07:03;27.70;99.20
25300;DHT22;13241;51.208;4.432;2022-08-21T15:09:31;27.30;99.90
25300;DHT22;13241;51.208;4.432;2022-08-21T15:12:00;27.10;99.90
25300;DHT22;13241;51.208;4.432;2022-08-21T15:14:30;26.90;99.90
25300;DHT22;13241;51.208;4.432;2022-08-21T15:16:58;26.80;99.90
25300;DHT22;13241;51.208;4.432;2022-08-21T15:19:25;26.70;99.90
25300;DHT22;13241;51.208;4.432;2022-08-21T15:21:53;26.70;99.90
25300;DHT22;13241;51.208;4.432;2022-08-21T15:24:20;26.70;99.90
25300;DHT22;13241;51.208;4.432;2022-08-21T15:26:47;26.70;99.90
25300;DHT22;13241;51.208;4.432;2022-08-21T15:29:14;26.70;99.90
25300;DHT22;13241;51.208;4.432;2022-08-21T15:31:56;26.70;99.90
25300;DHT22;13241;51.208;4.432;2022-08-21T15:34:25;26.50;99.90
25300;DHT22;13241;51.208;4.432;2022-08-21T15:36:55;26.30;99.90
25300;DHT22;13241;51.208;4.432;2022-08-21T15:39:25;26.10;99.90
25300;DHT22;13241;51.208;4.432;2022-08-21T15:41:58;26.00;99.90
25300;DHT22;13241;51.208;4.432;2022-08-21T15:44:36;26.00;99.90
25300;DHT22;13241;51.208;4.432;2022-08-21T15:47:03;26.00;99.90
25300;DHT22;13241;51.208;4.432;2022-08-21T15:49:30;26.10;99.90
25300;DHT22;13241;51.208;4.432;2022-08-21T15:51:57;26.10;99.90
25300;DHT22;13241;51.208;4.432;2022-08-21T15:54:25;26.10;99.90
25300;DHT22;13241;51.208;4.432;2022-08-21T15:56:52;26.00;99.90
25300;DHT22;13241;51.208;4.432;2022-08-21T15:59:21;26.00;99.90
25300;DHT22;13241;51.208;4.432;2022-08-21T16:01:51;25.90;99.90
25300;DHT22;13241;51.208;4.432;2022-08-21T16:04:25;25.80;99.90
25300;DHT22;13241;51.208;4.432;2022-08-21T16:06:53;25.70;99.90
25300;DHT22;13241;51.208;4.432;2022-08-21T16:09:27;25.70;99.90
25300;DHT22;13241;51.208;4.432;2022-08-21T16:11:54;25.70;99.90
25300;DHT22;13241;51.208;4.432;2022-08-21T16:14:21;25.80;99.90
25300;DHT22;13241;51.208;4.432;2022-08-21T16:16:48;25.60;99.90
25300;DHT22;13241;51.208;4.432;2022-08-21T16:19:16;25.60;99.90
25300;DHT22;13241;51.208;4.432;2022-08-21T16:21:44;25.50;99.90
25300;DHT22;13241;51.208;4.432;2022-08-21T16:24:11;25.50;99.90
25300;DHT22;13241;51.208;4.432;2022-08-21T16:26:38;25.50;99.90
25300;DHT22;13241;51.208;4.432;2022-08-21T16:29:06;25.30;99.90
25300;DHT22;13241;51.208;4.432;2022-08-21T16:31:34;25.20;99.90
25300;DHT22;13241;51.208;4.432;2022-08-21T16:34:04;25.20;99.90
25300;DHT22;13241;51.208;4.432;2022-08-21T16:36:31;25.00;99.90
25300;DHT22;13241;51.208;4.432;2022-08-21T16:38:59;24.70;99.90
25300;DHT22;13241;51.208;4.432;2022-08-21T16:41:30;24.50;99.90
25300;DHT22;13241;51.208;4.432;2022-08-21T16:43:58;24.40;99.90
25300;DHT22;13241;51.208;4.432;2022-08-21T16:46:32;24.30;99.90
25300;DHT22;13241;51.208;4.432;2022-08-21T16:48:59;24.20;99.90
25300;DHT22;13241;51.208;4.432;2022-08-21T16:51:26;24.20;99.90
25300;DHT22;13241;51.208;4.432;2022-08-21T16:53:53;24.10;99.90
25300;DHT22;13241;51.208;4.432;2022-08-21T16:56:20;24.20;99.90
25300;DHT22;13241;51.208;4.432;2022-08-21T16:58:48;24.10;99.90
25300;DHT22;13241;51.208;4.432;2022-08-21T17:01:19;24.30;99.90
25300;DHT22;13241;51.208;4.432;2022-08-21T17:03:48;24.30;99.90
25300;DHT22;13241;51.208;4.432;2022-08-21T17:06:17;24.30;99.90
25300;DHT22;13241;51.208;4.432;2022-08-21T17:08:44;24.40;99.90
25300;DHT22;13241;51.208;4.432;2022-08-21T17:11:33;24.30;99.90
25300;DHT22;13241;51.208;4.432;2022-08-21T17:14:22;24.50;99.90
25300;DHT22;13241;51.208;4.432;2022-08-21T17:16:54;24.50;99.90
25300;DHT22;13241;51.208;4.432;2022-08-21T17:19:22;24.60;99.90